createdAt,value
2022-08-16T00:01:11.399Z,99389.38
2022-08-16T00:03:38.852Z,99382.31
2022-08-16T00:06:07.533Z,99384.25
2022-08-16T00:08:37.394Z,99385.94
2022-08-16T00:11:07.974Z,99389.66
2022-08-16T00:13:42.491Z,99387.41
2022-08-16T00:17:00.777Z,99388.97
2022-08-16T00:19:05.472Z,99394.75
2022-08-16T00:21:33.233Z,99393.38
2022-08-16T00:23:59.725Z,99395.66
2022-08-16T00:26:34.701Z,99398.06
2022-08-16T00:29:11.032Z,99393.78
2022-08-16T00:31:47.124Z,99388.50
2022-08-16T00:34:41.262Z,99383.31
2022-08-16T00:37:10.599Z,99380.09
2022-08-16T00:39:37.618Z,99386.63
2022-08-16T00:42:05.946Z,99382.03
2022-08-16T00:44:37.636Z,99390.06
2022-08-16T00:47:08.623Z,99384.37
2022-08-16T00:49:39.622Z,99382.19
2022-08-16T00:52:30.259Z,99388.66
2022-08-16T00:54:57.863Z,99391.31
2022-08-16T00:57:24.337Z,99389.25
2022-08-16T00:59:59.530Z,99390.56
2022-08-16T01:02:31.607Z,99396.09
2022-08-16T01:05:10.578Z,99398.50
2022-08-16T01:07:49.755Z,99396.91
2022-08-16T01:10:19.409Z,99401.06
2022-08-16T01:12:46.140Z,99400.25
2022-08-16T01:15:13.407Z,99401.91
2022-08-16T01:17:42.194Z,99402.66
2022-08-16T01:20:23.798Z,99403.47
2022-08-16T01:22:57.377Z,99404.91
2022-08-16T01:25:33.845Z,99401.16
2022-08-16T01:28:02.259Z,99405.19
2022-08-16T01:30:31.205Z,99406.84
2022-08-16T01:33:02.449Z,99420.75
2022-08-16T01:35:43.466Z,99406.16
2022-08-16T01:38:28.988Z,99407.66
2022-08-16T01:40:57.975Z,99402.59
2022-08-16T01:43:28.592Z,99405.47
2022-08-16T01:45:59.302Z,99407.88
2022-08-16T01:48:27.443Z,99400.59
2022-08-16T01:51:09.751Z,99405.53
2022-08-16T01:53:41.212Z,99396.50
2022-08-16T01:56:23.303Z,99404.03
2022-08-16T01:58:52.293Z,99406.06
2022-08-16T02:01:18.790Z,99410.72
2022-08-16T02:03:45.459Z,99401.41
2022-08-16T02:06:34.317Z,99401.50
2022-08-16T02:09:05.608Z,99395.44
2022-08-16T02:11:47.736Z,99396.03
2022-08-16T02:14:21.443Z,99394.53
2022-08-16T02:16:48.471Z,99392.72
2022-08-16T02:19:16.101Z,99391.97
2022-08-16T02:22:09.354Z,99396.97
2022-08-16T02:24:32.833Z,99394.41
2022-08-16T02:27:07.990Z,99399.69
2022-08-16T02:29:34.663Z,99394.50
2022-08-16T02:32:03.187Z,99396.56
2022-08-16T02:34:34.712Z,99397.69
2022-08-16T02:37:01.356Z,99392.41
2022-08-16T02:39:27.846Z,99395.75
2022-08-16T02:41:56.812Z,99385.97
2022-08-16T02:44:23.782Z,99393.28
2022-08-16T02:46:53.796Z,99386.09
2022-08-16T02:49:20.792Z,99397.06
2022-08-16T02:51:47.249Z,99386.94
2022-08-16T02:54:16.889Z,99395.06
2022-08-16T02:56:43.506Z,99407.34
2022-08-16T02:59:14.710Z,99394.03
2022-08-16T03:01:41.705Z,99399.50
2022-08-16T03:04:39.980Z,99396.50
2022-08-16T03:06:56.446Z,99400.63
2022-08-16T03:09:23.733Z,99394.16
2022-08-16T03:11:50.489Z,99397.19
2022-08-16T03:14:21.071Z,99406.09
2022-08-16T03:16:59.706Z,99405.38
2022-08-16T03:19:48.655Z,99412.31
2022-08-16T03:22:19.530Z,99404.44
2022-08-16T03:24:57.514Z,99413.38
2022-08-16T03:27:24.804Z,99419.22
2022-08-16T03:29:54.777Z,99416.00
2022-08-16T03:32:21.618Z,99409.69
2022-08-16T03:34:49.860Z,99413.44
2022-08-16T03:37:16.733Z,99415.25
2022-08-16T03:39:43.516Z,99428.16
2022-08-16T03:42:10.527Z,99429.56
2022-08-16T03:44:43.386Z,99433.97
2022-08-16T03:47:18.853Z,99435.97
2022-08-16T03:49:48.098Z,99446.47
2022-08-16T03:52:19.998Z,99440.91
2022-08-16T03:54:58.219Z,99445.97
2022-08-16T03:57:31.998Z,99449.44
2022-08-16T04:00:35.988Z,99450.03
2022-08-16T04:03:08.726Z,99451.87
2022-08-16T04:05:40.161Z,99449.59
2022-08-16T04:08:22.807Z,99451.59
2022-08-16T04:10:51.756Z,99462.75
2022-08-16T04:13:20.646Z,99469.78
2022-08-16T04:16:06.580Z,99469.78
2022-08-16T04:18:33.450Z,99466.78
2022-08-16T04:21:01.103Z,99464.19
2022-08-16T04:23:29.820Z,99457.84
2022-08-16T04:25:56.320Z,99460.72
2022-08-16T04:28:29.204Z,99456.03
2022-08-16T04:31:10.675Z,99462.25
2022-08-16T04:33:37.326Z,99456.75
2022-08-16T04:36:04.754Z,99457.88
2022-08-16T04:38:32.538Z,99456.34
2022-08-16T04:40:59.044Z,99453.22
2022-08-16T04:43:26.511Z,99453.97
2022-08-16T04:46:00.361Z,99454.59
2022-08-16T04:48:32.383Z,99447.28
2022-08-16T04:51:00.706Z,99449.19
2022-08-16T04:53:28.742Z,99456.94
2022-08-16T04:55:55.457Z,99459.09
2022-08-16T04:58:38.351Z,99458.31
2022-08-16T05:01:08.914Z,99456.56
2022-08-16T05:03:35.539Z,99452.47
2022-08-16T05:06:09.288Z,99452.78
2022-08-16T05:08:36.116Z,99452.41
2022-08-16T05:11:05.523Z,99456.09
2022-08-16T05:13:40.406Z,99460.25
2022-08-16T05:16:11.932Z,99461.34
2022-08-16T05:18:43.337Z,99467.59
2022-08-16T05:21:11.290Z,99474.59
2022-08-16T05:23:39.277Z,99478.06
2022-08-16T05:26:05.797Z,99473.75
2022-08-16T05:28:46.405Z,99480.13
2022-08-16T05:31:12.960Z,99477.28
2022-08-16T05:33:42.117Z,99475.09
2022-08-16T05:36:14.256Z,99484.72
2022-08-16T05:38:41.275Z,99488.94
2022-08-16T05:41:09.400Z,99488.03
2022-08-16T05:43:43.366Z,99471.88
2022-08-16T05:46:28.867Z,99477.41
2022-08-16T05:49:01.693Z,99468.34
2022-08-16T05:51:38.135Z,99472.25
2022-08-16T05:54:05.694Z,99472.88
2022-08-16T05:56:32.144Z,99468.63
2022-08-16T05:59:02.625Z,99475.81
2022-08-16T06:01:32.963Z,99479.38
2022-08-16T06:04:05.595Z,99470.25
2022-08-16T06:06:41.252Z,99476.22
2022-08-16T06:09:13.963Z,99477.56
2022-08-16T06:11:43.259Z,99474.81
2022-08-16T06:14:10.373Z,99480.41
2022-08-16T06:16:36.979Z,99487.12
2022-08-16T06:19:04.697Z,99487.12
2022-08-16T06:21:36.871Z,99480.03
2022-08-16T06:24:54.007Z,99483.34
2022-08-16T06:26:57.762Z,99480.72
2022-08-16T06:29:24.788Z,99487.03
2022-08-16T06:31:51.316Z,99484.63
2022-08-16T06:34:56.193Z,99491.59
2022-08-16T06:37:04.820Z,99488.38
2022-08-16T06:39:31.505Z,99495.16
2022-08-16T06:42:00.896Z,99499.88
2022-08-16T06:44:27.668Z,99506.66
2022-08-16T06:46:54.322Z,99501.62
2022-08-16T06:49:20.781Z,99497.87
2022-08-16T06:51:48.867Z,99504.16
2022-08-16T06:54:16.273Z,99502.88
2022-08-16T06:56:43.394Z,99496.78
2022-08-16T06:59:10.349Z,99492.94
2022-08-16T07:01:45.060Z,99502.25
2022-08-16T07:04:33.138Z,99506.44
2022-08-16T07:07:01.360Z,99500.22
2022-08-16T07:09:29.879Z,99504.13
2022-08-16T07:12:03.182Z,99502.94
2022-08-16T07:14:30.686Z,99505.50
2022-08-16T07:16:58.346Z,99498.66
2022-08-16T07:19:33.610Z,99506.25
2022-08-16T07:22:39.161Z,99506.41
2022-08-16T07:25:00.305Z,99510.16
2022-08-16T07:27:26.853Z,99500.78
2022-08-16T07:29:55.519Z,99495.12
2022-08-16T07:32:29.525Z,99491.16
2022-08-16T07:34:58.244Z,99497.63
2022-08-16T07:37:24.821Z,99487.06
2022-08-16T07:39:52.028Z,99498.66
2022-08-16T07:42:34.806Z,99497.00
2022-08-16T07:45:03.270Z,99504.38
2022-08-16T07:47:34.069Z,99501.16
2022-08-16T07:50:05.324Z,99509.00
2022-08-16T07:52:34.260Z,99509.03
2022-08-16T07:55:00.714Z,99512.34
2022-08-16T07:57:27.678Z,99502.22
2022-08-16T07:59:57.164Z,99495.69
2022-08-16T08:02:27.201Z,99496.38
2022-08-16T08:04:55.298Z,99499.94
2022-08-16T08:07:21.895Z,99496.22
2022-08-16T08:09:50.082Z,99494.41
2022-08-16T08:12:31.978Z,99494.59
2022-08-16T08:15:04.301Z,99493.53
2022-08-16T08:17:42.991Z,99500.84
2022-08-16T08:20:20.815Z,99498.59
2022-08-16T08:22:54.160Z,99500.84
2022-08-16T08:25:28.086Z,99496.97
2022-08-16T08:28:15.043Z,99503.88
2022-08-16T08:30:49.876Z,99513.34
2022-08-16T08:33:27.250Z,99514.59
2022-08-16T08:35:56.369Z,99509.19
2022-08-16T08:38:43.642Z,99515.44
2022-08-16T08:41:10.251Z,99508.00
2022-08-16T08:43:41.882Z,99508.59
2022-08-16T08:46:17.801Z,99510.81
2022-08-16T08:48:45.326Z,99517.38
2022-08-16T08:51:27.707Z,99515.84
2022-08-16T08:54:04.109Z,99514.47
2022-08-16T08:56:35.139Z,99519.00
2022-08-16T08:59:04.645Z,99528.59
2022-08-16T09:01:43.053Z,99524.72
2022-08-16T09:04:23.177Z,99526.94
2022-08-16T09:06:50.532Z,99516.94
2022-08-16T09:09:17.528Z,99527.87
2022-08-16T09:11:47.313Z,99519.75
2022-08-16T09:14:24.019Z,99521.00
2022-08-16T09:17:01.480Z,99521.69
2022-08-16T09:19:33.008Z,99524.38
2022-08-16T09:22:00.449Z,99522.75
2022-08-16T09:24:52.780Z,99521.56
2022-08-16T09:27:13.407Z,99516.28
2022-08-16T09:29:44.932Z,99509.62
2022-08-16T09:32:12.069Z,99509.50
2022-08-16T09:34:38.724Z,99507.25
2022-08-16T09:37:17.989Z,99507.69
2022-08-16T09:39:50.103Z,99513.87
2022-08-16T09:42:17.034Z,99505.50
2022-08-16T09:45:10.685Z,99508.66
2022-08-16T09:47:57.378Z,99497.00
2022-08-16T09:50:22.504Z,99499.31
2022-08-16T09:52:49.885Z,99508.16
2022-08-16T09:55:16.445Z,99497.69
2022-08-16T09:57:43.337Z,99498.94
2022-08-16T10:00:44.411Z,99498.09
2022-08-16T10:03:06.430Z,99503.84
2022-08-16T10:05:37.944Z,99498.50
2022-08-16T10:08:25.746Z,99500.25
2022-08-16T10:11:10.298Z,99490.34
2022-08-16T10:13:36.746Z,99492.06
2022-08-16T10:16:06.098Z,99489.41
2022-08-16T10:18:41.281Z,99486.00
2022-08-16T10:21:23.780Z,99484.31
2022-08-16T10:23:53.556Z,99485.41
2022-08-16T10:27:19.575Z,99486.38
2022-08-16T10:29:07.908Z,99480.81
2022-08-16T10:31:43.761Z,99481.09
2022-08-16T10:34:31.983Z,99473.06
2022-08-16T10:36:58.816Z,99467.97
2022-08-16T10:39:25.686Z,99477.84
2022-08-16T10:41:52.186Z,99477.69
2022-08-16T10:44:18.631Z,99483.31
2022-08-16T10:46:45.272Z,99482.31
2022-08-16T10:49:12.105Z,99480.41
2022-08-16T10:52:02.503Z,99485.84
2022-08-16T10:54:29.097Z,99476.47
2022-08-16T10:56:57.627Z,99464.88
2022-08-16T10:59:32.895Z,99469.31
2022-08-16T11:02:59.578Z,99472.69
2022-08-16T11:05:05.922Z,99471.62
2022-08-16T11:07:52.658Z,99460.03
2022-08-16T11:11:05.360Z,99466.34
2022-08-16T11:16:00.792Z,99456.94
2022-08-16T11:19:04.597Z,99456.97
2022-08-16T11:21:28.359Z,99458.09
2022-08-16T11:23:58.672Z,99447.41
2022-08-16T11:26:25.654Z,99452.87
2022-08-16T11:31:40.236Z,99443.28
2022-08-16T11:34:12.563Z,99452.06
2022-08-16T11:36:40.021Z,99446.38
2022-08-16T11:39:20.466Z,99453.03
2022-08-16T11:41:49.335Z,99449.19
2022-08-16T11:44:20.368Z,99451.47
2022-08-16T11:47:04.573Z,99452.59
2022-08-16T11:49:31.034Z,99455.06
2022-08-16T11:51:57.471Z,99453.38
2022-08-16T11:54:33.239Z,99443.53
2022-08-16T11:57:03.212Z,99444.72
2022-08-16T11:59:30.119Z,99446.00
2022-08-16T12:02:04.361Z,99447.16
2022-08-16T12:04:46.458Z,99449.28
2022-08-16T12:07:18.358Z,99458.16
2022-08-16T12:09:44.844Z,99459.91
2022-08-16T12:12:12.466Z,99454.41
2022-08-16T12:14:38.916Z,99453.78
2022-08-16T12:17:06.937Z,99456.09
2022-08-16T12:19:36.003Z,99457.59
2022-08-16T12:22:05.769Z,99448.91
2022-08-16T12:24:45.231Z,99451.87
2022-08-16T12:27:14.456Z,99458.94
2022-08-16T12:29:41.876Z,99447.88
2022-08-16T12:32:27.163Z,99462.41
2022-08-16T12:34:55.153Z,99452.44
2022-08-16T12:37:24.332Z,99447.34
2022-08-16T12:39:52.874Z,99444.87
2022-08-16T12:42:20.618Z,99446.34
2022-08-16T12:44:47.393Z,99443.41
2022-08-16T12:47:32.655Z,99446.22
2022-08-16T12:49:59.369Z,99444.84
2022-08-16T12:52:33.397Z,99435.69
2022-08-16T12:55:01.184Z,99437.94
2022-08-16T12:57:36.724Z,99437.34
2022-08-16T13:00:08.729Z,99432.44
2022-08-16T13:02:36.523Z,99438.72
2022-08-16T13:05:03.798Z,99432.19
2022-08-16T13:07:42.498Z,99437.41
2022-08-16T13:10:21.197Z,99432.78
2022-08-16T13:13:01.472Z,99427.31
2022-08-16T13:15:28.661Z,99427.22
2022-08-16T13:17:55.352Z,99410.94
2022-08-16T13:20:25.182Z,99419.94
2022-08-16T13:22:54.875Z,99409.25
2022-08-16T13:25:23.136Z,99407.34
2022-08-16T13:28:03.275Z,99406.37
2022-08-16T13:30:37.686Z,99417.06
2022-08-16T13:33:10.794Z,99420.69
2022-08-16T13:35:43.156Z,99420.19
2022-08-16T13:38:10.207Z,99422.88
2022-08-16T13:40:48.346Z,99420.59
2022-08-16T13:43:17.190Z,99427.16
2022-08-16T13:45:44.929Z,99424.06
2022-08-16T13:48:11.658Z,99413.97
2022-08-16T13:50:52.610Z,99423.66
2022-08-16T13:53:19.285Z,99422.03
2022-08-16T13:55:58.481Z,99423.66
2022-08-16T13:58:36.661Z,99416.75
2022-08-16T14:01:12.328Z,99419.19
2022-08-16T14:03:39.812Z,99414.28
2022-08-16T14:06:11.027Z,99416.00
2022-08-16T14:08:42.324Z,99406.66
2022-08-16T14:11:11.991Z,99407.50
2022-08-16T14:13:39.692Z,99403.62
2022-08-16T14:16:12.328Z,99415.19
2022-08-16T14:18:39.551Z,99405.09
2022-08-16T14:21:08.877Z,99403.22
2022-08-16T14:23:38.201Z,99405.94
2022-08-16T14:26:04.665Z,99397.47
2022-08-16T14:28:32.000Z,99404.59
2022-08-16T14:31:00.199Z,99402.81
2022-08-16T14:33:26.730Z,99400.94
2022-08-16T14:35:58.775Z,99401.25
2022-08-16T14:38:25.757Z,99401.47
2022-08-16T14:40:56.568Z,99411.50
2022-08-16T14:43:25.898Z,99421.37
2022-08-16T14:45:56.381Z,99409.81
2022-08-16T14:48:26.241Z,99410.56
2022-08-16T14:50:53.292Z,99414.41
2022-08-16T14:53:20.179Z,99410.59
2022-08-16T14:55:48.513Z,99409.34
2022-08-16T14:58:19.220Z,99413.66
2022-08-16T15:00:47.544Z,99405.16
2022-08-16T15:03:17.345Z,99409.75
2022-08-16T15:05:44.309Z,99402.84
2022-08-16T15:08:10.961Z,99406.72
2022-08-16T15:10:39.069Z,99412.50
2022-08-16T15:13:09.930Z,99415.19
2022-08-16T15:15:37.750Z,99416.38
2022-08-16T15:18:06.182Z,99425.25
2022-08-16T15:20:37.573Z,99419.31
2022-08-16T15:23:07.386Z,99425.41
2022-08-16T15:25:43.906Z,99438.47
2022-08-16T15:28:24.109Z,99431.56
2022-08-16T15:31:00.993Z,99445.72
2022-08-16T15:33:32.113Z,99449.03
2022-08-16T15:35:58.825Z,99443.91
2022-08-16T15:38:54.632Z,99455.88
2022-08-16T15:41:28.562Z,99448.84
2022-08-16T15:44:05.011Z,99451.16
2022-08-16T15:46:55.627Z,99434.69
2022-08-16T15:49:25.111Z,99447.88
2022-08-16T15:52:01.328Z,99453.88
2022-08-16T15:54:33.555Z,99456.94
2022-08-16T15:57:11.905Z,99458.06
2022-08-16T15:59:48.991Z,99457.06
2022-08-16T16:02:29.150Z,99450.19
2022-08-16T16:04:58.037Z,99454.75
2022-08-16T16:07:27.572Z,99454.97
2022-08-16T16:09:58.757Z,99449.94
2022-08-16T16:15:12.221Z,99467.69
2022-08-16T16:17:38.669Z,99463.16
2022-08-16T16:20:13.795Z,99468.22
2022-08-16T16:22:43.299Z,99474.47
2022-08-16T16:25:10.350Z,99476.59
2022-08-16T16:27:36.888Z,99475.41
2022-08-16T16:30:11.285Z,99477.22
2022-08-16T16:32:51.033Z,99481.97
2022-08-16T16:35:18.033Z,99474.63
2022-08-16T16:37:44.608Z,99474.63
2022-08-16T16:40:12.860Z,99479.19
2022-08-16T16:42:44.637Z,99477.34
2022-08-16T16:45:11.289Z,99474.87
2022-08-16T16:47:41.433Z,99482.16
2022-08-16T16:50:09.297Z,99480.75
2022-08-16T16:52:44.599Z,99480.81
2022-08-16T16:55:12.867Z,99473.22
2022-08-16T16:57:58.148Z,99482.06
2022-08-16T17:00:29.871Z,99471.78
2022-08-16T17:03:05.486Z,99458.63
2022-08-16T17:05:32.542Z,99468.63
2022-08-16T17:07:59.848Z,99481.66
2022-08-16T17:10:46.277Z,99474.28
2022-08-16T17:13:15.695Z,99483.59
2022-08-16T17:15:42.166Z,99493.81
2022-08-16T17:19:17.174Z,99489.63
2022-08-16T17:20:55.262Z,99489.00
2022-08-16T17:23:23.291Z,99504.03
2022-08-16T17:26:10.369Z,99503.53
2022-08-16T17:28:59.721Z,99520.03
2022-08-16T17:31:38.253Z,99518.81
2022-08-16T17:34:26.062Z,99522.25
2022-08-16T17:36:54.527Z,99510.00
2022-08-16T17:39:21.577Z,99514.06
2022-08-16T17:41:51.126Z,99517.78
2022-08-16T17:44:19.295Z,99517.56
2022-08-16T17:46:52.311Z,99520.87
2022-08-16T17:49:19.504Z,99522.84
2022-08-16T17:51:46.022Z,99515.88
2022-08-16T17:54:29.751Z,99520.56
2022-08-16T17:57:01.357Z,99523.34
2022-08-16T17:59:28.671Z,99529.13
2022-08-16T18:01:55.782Z,99531.28
2022-08-16T18:04:49.043Z,99532.72
2022-08-16T18:07:10.105Z,99534.34
2022-08-16T18:09:36.990Z,99539.75
2022-08-16T18:12:33.966Z,99541.03
2022-08-16T18:15:00.201Z,99552.94
2022-08-16T18:17:26.929Z,99547.94
2022-08-16T18:19:53.396Z,99552.97
2022-08-16T18:22:30.522Z,99559.00
2022-08-16T18:24:57.688Z,99563.12
2022-08-16T18:27:26.076Z,99567.28
2022-08-16T18:29:53.163Z,99565.94
2022-08-16T18:32:24.912Z,99573.81
2022-08-16T18:34:52.574Z,99572.94
2022-08-16T18:37:20.855Z,99566.50
2022-08-16T18:39:47.439Z,99583.19
2022-08-16T18:42:14.648Z,99578.41
2022-08-16T18:44:42.436Z,99563.16
2022-08-16T18:47:09.035Z,99583.00
2022-08-16T18:49:36.153Z,99580.06
2022-08-16T18:52:03.272Z,99582.75
2022-08-16T18:54:31.203Z,99574.41
2022-08-16T18:56:58.234Z,99574.63
2022-08-16T18:59:29.364Z,99570.97
2022-08-16T19:02:00.200Z,99567.06
2022-08-16T19:04:48.115Z,99568.97
2022-08-16T19:07:18.190Z,99575.66
2022-08-16T19:09:44.725Z,99571.97
2022-08-16T19:12:11.266Z,99571.03
2022-08-16T19:14:42.706Z,99572.47
2022-08-16T19:17:11.334Z,99575.94
2022-08-16T19:19:37.937Z,99571.34
2022-08-16T19:22:05.961Z,99578.53
2022-08-16T19:24:32.698Z,99577.09
2022-08-16T19:26:59.267Z,99576.63
2022-08-16T19:29:28.475Z,99578.16
2022-08-16T19:31:55.048Z,99567.63
2022-08-16T19:34:21.612Z,99574.91
2022-08-16T19:36:48.136Z,99571.28
2022-08-16T19:39:16.120Z,99575.31
2022-08-16T19:41:45.142Z,99572.78
2022-08-16T19:44:11.645Z,99581.19
2022-08-16T19:46:38.441Z,99575.63
2022-08-16T19:49:05.110Z,99579.09
2022-08-16T19:51:32.945Z,99576.47
2022-08-16T19:53:59.446Z,99581.37
2022-08-16T19:56:26.917Z,99577.00
2022-08-16T19:59:18.281Z,99579.84
2022-08-16T20:01:42.581Z,99577.19
2022-08-16T20:04:12.050Z,99576.44
2022-08-16T20:06:39.525Z,99579.28
2022-08-16T20:09:06.794Z,99576.19
2022-08-16T20:11:34.806Z,99581.50
2022-08-16T20:14:01.487Z,99585.72
2022-08-16T20:16:27.964Z,99585.09
2022-08-16T20:18:54.404Z,99586.16
2022-08-16T20:21:20.933Z,99594.44
2022-08-16T20:23:47.418Z,99591.94
2022-08-16T20:26:13.870Z,99591.63
2022-08-16T20:28:53.618Z,99598.16
2022-08-16T20:31:25.464Z,99601.22
2022-08-16T20:33:53.705Z,99594.53
2022-08-16T20:36:20.292Z,99594.94
2022-08-16T20:38:47.619Z,99597.37
2022-08-16T20:41:14.765Z,99606.69
2022-08-16T20:43:41.240Z,99604.03
2022-08-16T20:46:07.787Z,99605.25
2022-08-16T20:48:34.267Z,99602.28
2022-08-16T20:51:00.798Z,99600.03
2022-08-16T20:53:27.263Z,99600.78
2022-08-16T20:55:53.810Z,99603.44
2022-08-16T20:58:20.286Z,99601.53
2022-08-16T21:00:47.309Z,99601.19
2022-08-16T21:03:14.189Z,99603.47
2022-08-16T21:05:40.718Z,99604.59
2022-08-16T21:08:50.956Z,99615.78
2022-08-16T21:10:54.478Z,99606.72
2022-08-16T21:13:21.098Z,99621.56
2022-08-16T21:15:48.165Z,99618.75
2022-08-16T21:18:14.645Z,99617.63
2022-08-16T21:20:41.297Z,99614.22
2022-08-16T21:23:10.034Z,99616.22
2022-08-16T21:25:44.843Z,99617.03
2022-08-16T21:28:40.966Z,99625.28
2022-08-16T21:31:13.802Z,99630.03
2022-08-16T21:33:40.852Z,99623.16
2022-08-16T21:36:07.515Z,99630.22
2022-08-16T21:38:34.153Z,99628.16
2022-08-16T21:41:02.201Z,99626.59
2022-08-16T21:43:32.248Z,99627.28
2022-08-16T21:45:59.694Z,99630.22
2022-08-16T21:48:35.142Z,99631.00
2022-08-16T21:51:07.154Z,99630.72
2022-08-16T21:53:33.761Z,99635.34
2022-08-16T21:56:00.665Z,99641.19
2022-08-16T21:58:27.276Z,99644.53
2022-08-16T22:00:54.115Z,99636.13
2022-08-16T22:03:21.144Z,99640.22
2022-08-16T22:06:11.727Z,99638.66
2022-08-16T22:08:35.847Z,99640.13
2022-08-16T22:11:16.690Z,99642.87
2022-08-16T22:13:43.170Z,99639.53
2022-08-16T22:16:18.041Z,99638.66
2022-08-16T22:18:52.446Z,99638.34
2022-08-16T22:21:19.671Z,99642.84
2022-08-16T22:23:46.300Z,99634.13
2022-08-16T22:26:30.261Z,99649.66
2022-08-16T22:28:58.034Z,99652.75
2022-08-16T22:31:25.395Z,99648.59
2022-08-16T22:33:51.944Z,99653.97
2022-08-16T22:36:18.429Z,99655.59
2022-08-16T22:38:56.640Z,99660.91
2022-08-16T22:41:24.009Z,99653.25
2022-08-16T22:43:50.474Z,99652.88
2022-08-16T22:46:17.872Z,99649.13
2022-08-16T22:48:44.324Z,99644.16
2022-08-16T22:51:10.803Z,99639.09
2022-08-16T22:53:37.625Z,99645.50
2022-08-16T22:56:04.855Z,99648.66
2022-08-16T22:58:36.316Z,99650.31
2022-08-16T23:01:06.011Z,99643.44
2022-08-16T23:03:32.941Z,99649.25
2022-08-16T23:06:02.080Z,99647.38
2022-08-16T23:08:35.927Z,99647.56
2022-08-16T23:11:07.002Z,99637.91
2022-08-16T23:13:33.505Z,99643.50
2022-08-16T23:16:02.307Z,99651.03
2022-08-16T23:18:37.633Z,99649.72
2022-08-16T23:21:07.272Z,99648.66
2022-08-16T23:23:33.775Z,99645.88
2022-08-16T23:26:01.170Z,99645.59
2022-08-16T23:28:30.531Z,99642.72
2022-08-16T23:30:57.777Z,99638.94
2022-08-16T23:33:25.052Z,99640.13
2022-08-16T23:35:53.361Z,99643.72
2022-08-16T23:38:37.855Z,99644.06
2022-08-16T23:41:09.346Z,99647.53
2022-08-16T23:43:41.853Z,99653.25
2022-08-16T23:46:09.110Z,99656.03
2022-08-16T23:49:57.985Z,99660.59
2022-08-16T23:51:23.439Z,99660.59
2022-08-16T23:53:50.196Z,99653.66
2022-08-16T23:56:17.932Z,99664.38
2022-08-16T23:58:45.914Z,99666.19
